Disclaimer

Please do not use the information listed here in-flight or in-navigation, as they are not provided to us by the airports but are provided by volunteers, so they might be outdated.

Search


Regions


Airport information page

Radio informations:
Tower (TWR) - 118.4 MHz
RIOHACHA RDO - 3488 MHz

Airport informations:
Latitude: 11° 31' 34.40" N
Longitude: 072° 55' 33.45" W
Elevation: 43 feet - 13 meters
Operating hours: Remarks
Operating agency: Civil government, landing fees and diplomatic clearance may be required
Timezone: UTC-5
Fuel: N/A

Runway information:
09/27 - 5413 x 98 feet< - >1650 x 30 meters

Recent METARs:
SKRH 192300Z 04008KT CAVOK 28/23 A2980
SKRH 192300Z 04008KT CAVOK 28/23 A2980
SKRH 192300Z 04008KT CAVOK 28/23 A2980

Airport on the map: